Tiempo atmosférico en la estación meteorológica de La Pinilla, estación de esquí, Segovia (1860 m.)



Fecha
DESCASC
Temp. máxima en grados centígrados (hora)
DESCASC
Temp. mínima en grados centígrados (hora)
DESCASC
Temp. media en grados centígrados
DESCASC
Racha de viento máxima en m/sg (hora)
DESCASC
Velocidad máxima media en intervalos de 10 minutos(hora)
DESCASC
Precipitaciones diarias en mm
DESCASC
Precipitaciones de 00:00 a 06:00 en mm
DESCASC
Precipitaciones de 06:00 a 12:00 en mm
DESCASC
Precipitaciones de 12:00 a 18:00 en mm
DESCASC
Precipitaciones de 18:00 a 24:00 en mm
DESCASC
22-08-2019 25.1 (17:00) 10.7 (05:40) 17.9 10.28 (23:10) 7.78 (00:30) 0 0 0 0 0
21-08-2019 23 (15:20) 11.8 (00:40) 17.4 16.39 (03:20) 12.22 (01:20) 0.4 0.4 0 0 0
20-08-2019 21.1 (16:40) 9 (08:10) 15.1 20 (03:00) 10.28 (03:00) 6.6 0.2 1.8 3 1.6
19-08-2019 22.3 (18:00) 11.8 (07:00) 17 11.39 (23:59) 5.56 (23:59) 0 0 0 0 0
18-08-2019 26.1 (13:30) 13.7 (00:00) 19.9 12.78 (18:10) 7.22 (09:40) 0 0 0 0 0
17-08-2019 28.6 (15:10) 15.7 (00:00) 22.2 13.06 (18:30) 6.67 (09:20) 0 0 0 0 0
16-08-2019 27 (16:50) 14.6 (00:00) 20.8 12.22 (16:10) 4.72 (14:00) 0 0 0 0 0
15-08-2019 25.5 (17:00) 13.6 (00:00) 19.6 10.28 (17:50) 5 (15:20) 0 0 0 0 0
14-08-2019 24.6 (17:40) 9.9 (00:00) 17.3 9.72 (17:50) 4.44 (14:10) 0 0 0 0 0
13-08-2019 19.8 (17:20) 6.9 (00:00) 13.3 11.67 (17:40) 5.56 (14:00) 0 0 0 0 0
12-08-2019 16.6 (17:50) 5.4 (00:00) 11 11.11 (15:00) 5.56 (15:00) 0 0 0 0 0
11-08-2019 20.4 (16:00) 9.3 (00:00) 14.8 12.78 (06:00) 5.28 (10:20) 0 0 0 0 0
10-08-2019 23 (18:40) 9.1 (00:00) 16.1 11.39 (19:10) 6.94 (09:00) 0 0 0 0 0
09-08-2019 23.5 (13:30) 11.1 (00:00) 17.3 18.06 (03:30) 9.44 (03:30) 5.2 0 0 0 5.2
08-08-2019 26.4 (15:10) 12.5 (00:00) 19.4 13.33 (18:30) 6.94 (21:00) 0 0 0 0 0
07-08-2019 23.2 (11:40) 13.7 (00:00) 18.5 12.78 (16:00) 7.5 (16:00) 0.4 0 0 0.2 0.2
06-08-2019 27.8 (16:20) 14.1 (00:00) 20.9 12.78 (10:30) 6.11 (10:10) 0 0 0 0 0
05-08-2019 28.1 (16:40) 14.7 (00:00) 21.4 10.28 (19:30) 5.28 (18:10) 0 0 0 0 0
04-08-2019 28 (17:40) 15.4 (00:00) 21.7 18.33 (20:10) 5.83 (16:00) 0 0 0 0 0
03-08-2019 28 (15:30) 17.4 (00:00) 22.7 12.5 (07:20) 8.89 (06:50) 0 0 0 0 0
02-08-2019 28.2 (17:30) 13.1 (00:00) 20.7 9.17 (18:10) 4.72 (23:20) 0 0 0 0 0
01-08-2019 25.2 (16:50) 14 (00:00) 19.6 18.61 (06:10) 11.67 (06:40) 0 0 0 0 0
31-07-2019 24.4 (17:40) 10.3 (00:00) 17.3 18.33 (07:30) 12.78 (08:30) 0.2 0 0 0 0.2
30-07-2019 20.7 (16:50) 6.4 (00:00) 13.6 8.33 (15:50) 4.72 (17:50) 0 0 0 0 0
29-07-2019 23.3 (15:50) 10.3 (00:00) 16.8 12.78 (18:20) 5.28 (17:10) 0 0 0 0 0
28-07-2019 20.5 (17:40) 5.5 (00:00) 13 10.28 (17:50) 4.44 (17:20) 1 1 0 0 0
27-07-2019 15.5 (18:20) 8.2 (00:00) 11.8 13.61 (13:40) 6.11 (02:50) 0.6 0 0 0 0.6
26-07-2019 20.4 (17:20) 12.5 (00:00) 16.4 12.22 (19:10) 4.72 (03:50) 0.2 0.2 0 0 0
25-07-2019 28.3 (16:20) 16.8 (00:00) 22.5 19.72 (01:30) 7.5 (01:40) 0 0 0 0 0
24-07-2019 30 (16:50) 16.6 (00:00) 23.3 16.94 (00:20) 7.22 (07:50) 0.2 0.2 0 0 0

Gráficas

Temp. máximas Temp. mínimas Temp. medias Precipitaciones Rachas de viento máximas Velocidades máximas media en intervalos de 10 minutos

Datos horarios

Fecha y hora oficial Temperatura (ºC) Velocidad del viento (km/h) Dirección del viento Racha (km/h) Dirección de racha Precipitación (mm) Presión (hPa) Tendencia (hPa) Humedad (%)
2019-08-22 23:00:00 17.6 21 Sur 36 Sudeste 0 828.2 0.5 22
2019-08-22 22:00:00 18.1 15 Sudeste 24 Sudeste 0 828.2 0.6 19
2019-08-22 21:00:00 18.9 12 Sur 28 Este 0 827.9 0.2 21
2019-08-22 20:00:00 22.2 3 Oeste 16 Norte 0 827.7 -0.1 19
2019-08-22 19:00:00 22.3 8 Norte 22 Norte 0 827.6 -0.6 19
2019-08-22 18:00:00 23.4 7 Norte 30 Nordeste 0 827.7 -0.7 18
2019-08-22 17:00:00 24.4 7 Nordeste 23 Norte 0 827.8 -0.8 18
2019-08-22 16:00:00 23.2 7 Nordeste 31 Nordeste 0 828.2 -0.6 17
2019-08-22 15:00:00 23.4 6 Este 27 Norte 0 828.4 -0.4 19
2019-08-22 14:00:00 21.9 11 Nordeste 24 Nordeste 0 828.6 0 22
2019-08-22 13:00:00 20.4 10 Norte 26 Norte 0 828.8 0.3 26
2019-08-22 12:00:00 18.8 12 Norte 27 Norte 0 828.8 0.5 34
2019-08-22 11:00:00 17.3 10 Norte 21 Norte 0 828.6 0.7 50
2019-08-22 10:00:00 16.7 6 Sudeste 12 Sudeste 0 828.5 0.7 51
2019-08-22 09:00:00 12.3 4 Sudoeste 14 Sudoeste 0 828.3 0.7 68
2019-08-22 08:00:00 12 8 Sudoeste 17 Sudoeste 0 827.9 0.2 67
2019-08-22 07:00:00 11.4 3 Sur 13 Sur 0 827.8 0.1 51
2019-08-22 06:00:00 11.2 6 Sur 13 Sur 0 827.6 -0.1 48
2019-08-22 05:00:00 11.1 9 Sur 18 Sudeste 0 827.7 -0.2 49
2019-08-22 04:00:00 11.8 12 Sur 16 Sur 0 827.7 -0.4 45
2019-08-22 03:00:00 11.7 12 Sur 17 Sur 0 827.7 -0.3 57
2019-08-22 02:00:00 12.1 7 Sur 22 Sur 0 827.9 -0.2 52
2019-08-22 01:00:00 14.1 21 Sur 33 Sur 0 828.1 0.4 53
2019-08-22 00:00:00 13.9 22 Sur 32 Sur 0 828 0.7 68
2019-08-21 23:00:00 14.1 17 Sudeste 30 Sudeste 0 828.1 1.4 65
2019-08-21 22:00:00 14.2 9 Sudeste 19 Nordeste 0 827.7 1.1 53
2019-08-21 21:00:00 16.3 6 Nordeste 31 Norte 0 827.3 0.8 44
2019-08-21 20:00:00 19.1 16 Norte 35 Nordeste 0 826.7 0.3 34
2019-08-21 19:00:00 18.5 10 Norte 33 Norte 0 826.6 -0.1 42
2019-08-21 18:00:00 19 11 Norte 26 Norte 0 826.5 -0.4 46
2019-08-21 17:00:00 20.6 11 Norte 24 Norte 0 826.4 -0.7 42
2019-08-21 16:00:00 20 9 Norte 29 Nordeste 0 826.7 -0.6 42
2019-08-21 15:00:00 22 9 Norte 23 Norte 0 826.9 -0.4 45
2019-08-21 14:00:00 17.8 9 Este 19 Nordeste 0 827.1 -0.1 64
2019-08-21 13:00:00 20.3 6 Nordeste 23 Norte 0 827.3 0.4 56
2019-08-21 12:00:00 19.1 6 Nordeste 21 Sudeste 0 827.3 0.7 58
2019-08-21 11:00:00 19.2 14 Sur 40 Sur 0 827.2 0.7 57
2019-08-21 10:00:00 14 30 Sur 44 Sur 0 826.9 0.5 82
2019-08-21 09:00:00 13.6 32 Sur 50 Sur 0 826.6 0.3 82
2019-08-21 08:00:00 13.3 35 Sur 51 Sudeste 0 826.5 0 83
2019-08-21 07:00:00 13 35 Sur 53 Sudeste 0 826.4 -0.1 82
2019-08-21 06:00:00 12.7 37 Sur 56 Sur 0 826.3 -0.2 82
2019-08-21 05:00:00 13.1 37 Sur 57 Sur 0 826.5 -0.2 81
2019-08-21 04:00:00 13 39 Sur 59 Sudeste 0 826.5 -0.3 84
2019-08-21 03:00:00 13.4 41 Sur 57 Sudeste 0.2 826.5 -0.6 82
2019-08-21 02:00:00 13.6 38 Sur 54 Sur 0 826.7 -0.3 71
2019-08-21 01:00:00 12.9 39 Sur 53 Sur 0.2 826.8 0.2 77
2019-08-21 00:00:00 13.7 18 Sur 30 Sudeste 0 827.1 0.9 69
2019-08-20 23:00:00 12.9 24 Sur 44 Sudeste 0.2 827 0.8 76
2019-08-20 22:00:00 13.2 26 Sudeste 40 Sudeste 0.2 826.6 0.2 74
2019-08-20 21:00:00 14 27 Sudeste 41 Sudeste 0.2 826.2 0 72
2019-08-20 20:00:00 16.6 19 Sudeste 34 Sudeste 0.4 826.2 -0.2 59
2019-08-20 19:00:00 18.4 12 Este 29 Norte 0.6 826.4 -0.2 53
2019-08-20 18:00:00 19.6 11 Nordeste 25 Norte 0.6 826.2 -0.5 49
2019-08-20 17:00:00 20.1 7 Norte 32 Norte 0.4 826.4 -0.3 47
2019-08-20 16:00:00 19.6 13 Norte 27 Norte 0.4 826.6 0 49
2019-08-20 15:00:00 18.2 9 Noroeste 20 Nordeste 0.6 826.7 0.6 54
2019-08-20 14:00:00 16.1 6 Norte 22 Norte 0.4 826.7 1 60
2019-08-20 13:00:00 16 5 Norte 13 Norte 0.6 826.6 1.4 69
2019-08-20 12:00:00 15.2 4 Norte 11 Norte 0.4 826.1 1.3 73
2019-08-20 11:00:00 11.4 5 Norte 12 Norte 0.4 825.7 1.4 90
2019-08-20 10:00:00 14.4 3 Este 13 Nordeste 0.4 825.2 1.4 73
2019-08-20 09:00:00 10.4 0 Calma 12 Sudeste 0.2 824.8 1.3 83
2019-08-20 08:00:00 9.2 5 Nordeste 19 Nordeste 0.2 824.3 1.2 92
2019-08-20 07:00:00 11.8 9 Sur 17 Sudoeste 0.2 823.8 1 72
2019-08-20 06:00:00 13.1 11 Sur 33 Sudoeste 0 823.5 -0.2 60
2019-08-20 05:00:00 13.2 21 Sur 47 Sur 0.2 823.1 -1.1 60
2019-08-20 04:00:00 13.1 26 Sur 57 Sudoeste 0 822.8 -1 64
2019-08-20 03:00:00 12.3 37 Sudoeste 72 Sudoeste 0 823.7 -0.2 70
2019-08-20 02:00:00 12 32 Sudoeste 69 Sudoeste 0 824.2 0.3 74
2019-08-20 01:00:00 14.4 16 Sudoeste 57 Sudoeste 0 823.8 0.5 55
2019-08-20 00:00:00 14.5 20 Sudoeste 41 Sudoeste 0 823.9 0.2 56
2019-08-19 23:00:00 13.6 6 Sur 37 Oeste 0 823.9 -0.2 77
2019-08-19 22:00:00 17.4 6 Nordeste 23 Oeste 0 823.3 -1 33
2019-08-19 21:00:00 15.6 12 Sur 22 Noroeste 0 823.7 -0.2 65
2019-08-19 20:00:00 16.1 4 Nordeste 13 Sur 0 824.1 0.2 69
2019-08-19 19:00:00 17.2 6 Sudoeste 26 Sudoeste 0 824.3 0.4 65
2019-08-19 18:00:00 19.8 11 Norte 24 Noroeste 0 823.9 -0.4 56
2019-08-19 17:00:00 19.4 10 Norte 22 Norte 0 823.9 -0.1 54
2019-08-19 16:00:00 20.9 8 Norte 18 Norte 0 823.9 0 51
2019-08-19 15:00:00 20.1 5 Nordeste 14 Nordeste 0 824.3 0.4 56
2019-08-19 14:00:00 20.4 9 Nordeste 22 Noroeste 0 824 0.6 55
2019-08-19 13:00:00 21.4 12 Norte 25 Nordeste 0 823.9 0.4 50
2019-08-19 12:00:00 18.3 10 Norte 32 Sur 0 823.9 0.7 65
2019-08-19 11:00:00 18.7 10 Este 37 Sudeste 0 823.4 0.4 57
2019-08-19 10:00:00 16.6 8 Noroeste 23 Sudoeste 0 823.5 0.2 65
2019-08-19 09:00:00 16.1 4 Norte 33 Sudoeste 0 823.2 0 64
2019-08-19 08:00:00 15.1 9 Sur 23 Sur 0 823 -0.2 65
2019-08-19 07:00:00 12 3 Sur 9 Sudoeste 0 823.3 -0.2 83
2019-08-19 06:00:00 12.8 6 Sudoeste 12 Oeste 0 823.2 -0.7 82
2019-08-19 05:00:00 13.6 4 Sudoeste 11 Sur 0 823.2 -0.9 77
2019-08-19 04:00:00 13.7 9 Sur 13 Sur 0 823.5 -0.7 76
2019-08-19 03:00:00 13.9 10 Sur 15 Sudoeste 0 823.9 -0.2 75
2019-08-19 02:00:00 14.4 9 Sur 17 Sur 0 824.1 0 75
2019-08-19 01:00:00 14 9 Sur 13 Sudoeste 0 824.2 0.3 79
2019-08-19 00:00:00 14.6 7 Sudoeste 12 Sudoeste 0 824.1 0.6 80
2019-08-18 23:00:00 15.4 7 Oeste 21 Sur 0 824.1 0.9 73
2019-08-18 22:00:00 17.6 7 Sudeste 18 Sur 0 823.9 0.5 42
2019-08-18 21:00:00 18.8 8 Norte 24 Norte 0 823.5 0.1 35
2019-08-18 20:00:00 19.8 9 Nordeste 30 Noroeste 0 823.2 -0.1 30
2019-08-18 19:00:00 20.7 6 Nordeste 46 Nordeste 0 823.4 0.1 29
2019-08-18 18:00:00 22.9 12 Norte 41 Norte 0 823.4 0 29
2019-08-18 17:00:00 23 19 Norte 34 Norte 0 823.3 -0.1 30
2019-08-18 16:00:00 24.1 12 Norte 40 Nordeste 0 823.3 -0.1 28
2019-08-18 15:00:00 24.7 12 Norte 30 Norte 0 823.4 0 28
2019-08-18 14:00:00 22.7 9 Noroeste 33 Norte 0 823.4 0.4 33
2019-08-18 13:00:00 22.8 8 Norte 22 Nordeste 0 823.4 0.5 32
2019-08-18 12:00:00 22.7 9 Noroeste 30 Sudoeste 0 823.4 0.8 35
2019-08-18 11:00:00 22.5 20 Sur 40 Sudoeste 0 823 0.4 21
2019-08-18 10:00:00 21.8 18 Sur 41 Sudoeste 0 822.9 0.5 23
2019-08-18 09:00:00 15.6 8 Sur 21 Sudoeste 0 822.6 0.3 33
2019-08-18 08:00:00 14.2 6 Sudoeste 22 Noroeste 0 822.6 -0.4 58
2019-08-18 07:00:00 17.1 10 Oeste 38 Sur 0 822.4 -0.6 39
2019-08-18 06:00:00 15.6 8 Sudoeste 19 Sudoeste 0 822.3 -1.2 35
2019-08-18 05:00:00 15.7 11 Sudoeste 33 Sur 0 823 -1 38
2019-08-18 04:00:00 19.3 19 Sur 33 Sur 0 823 -1.4 28
2019-08-18 03:00:00 17 8 Sur 16 Sudoeste 0 823.5 -0.9 34
2019-08-18 02:00:00 18.2 11 Sudoeste 18 Sudoeste 0 824 -0.6 32
2019-08-18 01:00:00 18.7 6 Sudoeste 18 Sudoeste 0 824.4 -0.1 30
2019-08-18 00:00:00 19.3 9 Sur 20 Sur 0 824.4 0.3 29
2019-08-17 23:00:00 19.5 8 Sur 15 Sur 0 824.6 0.6 28
2019-08-17 22:00:00 20.5 4 Este 16 Nordeste 0 824.5 0.3 30
2019-08-17 21:00:00 22.7 7 Nordeste 18 Nordeste 0 824.1 -0.2 27
2019-08-17 20:00:00 25.6 7 Nordeste 32 Norte 0 824 -0.7 22
2019-08-17 19:00:00 27.6 12 Noroeste 47 Oeste 0 824.2 -0.9 16
2019-08-17 18:00:00 26.8 11 Oeste 42 Oeste 0 824.3 -1.1 17
2019-08-17 17:00:00 28 13 Sudoeste 40 Oeste 0 824.7 -0.9 18
2019-08-17 16:00:00 28 8 Sur 39 Oeste 0 825.1 -0.9 20
2019-08-17 15:00:00 27.5 9 Este 32 Norte 0 825.4 -0.9 22
2019-08-17 14:00:00 26.5 9 Sur 30 Oeste 0 825.6 -0.6 23
2019-08-17 13:00:00 25.3 13 Sur 28 Sur 0 826 0 24
2019-08-17 12:00:00 24.8 8 Sudoeste 29 Sur 0 826.3 0.5 25
2019-08-17 11:00:00 23.2 17 Sur 31 Sudeste 0 826.2 0.5 28
2019-08-17 10:00:00 21.2 18 Sur 32 Sudeste 0 826 0.5 31
2019-08-17 09:00:00 18.3 21 Sur 30 Sur 0 825.8 0.3 37
2019-08-17 08:00:00 17.5 15 Sur 23 Sur 0 825.7 -0.3 35
2019-08-17 07:00:00 17.4 8 Sur 23 Sur 0 825.5 -0.7 36
2019-08-17 06:00:00 15.8 12 Sur 21 Sur 0 825.5 -0.8 41
2019-08-17 05:00:00 16.7 10 Sur 28 Sur 0 826 -0.6 39
2019-08-17 04:00:00 16.7 10 Sudoeste 20 Sur 0 826.2 -0.4 38
2019-08-17 03:00:00 17.1 12 Sudoeste 18 Sudoeste 0 826.3 -0.6 35
2019-08-17 02:00:00 17.3 5 Sur 13 Sudoeste 0 826.6 -0.2 33
2019-08-17 01:00:00 17.4 7 Sur 13 Sudoeste 0 826.6 0 38
2019-08-17 00:00:00 17.9 4 Sudoeste 9 Sudoeste 0 826.9 0.7 41
2019-08-16 23:00:00 18.3 4 Sudoeste 11 Sudeste 0 826.8 0.9 39
2019-08-16 22:00:00 19.8 3 Sudeste 17 Oeste 0 826.6 0.7 38
2019-08-16 21:00:00 21.7 8 Norte 33 Norte 0 826.2 0.2 34
2019-08-16 20:00:00 24 10 Norte 33 Noroeste 0 825.9 -0.4 30
2019-08-16 19:00:00 26 9 Nordeste 31 Norte 0 825.9 -0.5 27
2019-08-16 18:00:00 25.3 14 Norte 32 Nordeste 0 826 -0.7 26
2019-08-16 17:00:00 26.2 15 Noroeste 44 Noroeste 0 826.3 -0.6 24
2019-08-16 16:00:00 26.1 9 Noroeste 35 Norte 0 826.4 -0.6 24
2019-08-16 15:00:00 24.9 15 Noroeste 32 Noroeste 0 826.7 -0.4 29
2019-08-16 14:00:00 22.7 17 Norte 41 Norte 0 826.9 -0.1 32
2019-08-16 13:00:00 24.5 7 Oeste 22 Nordeste 0 827 0 31
2019-08-16 12:00:00 23.9 6 Sudeste 16 Nordeste 0 827.1 0.1 34
2019-08-16 11:00:00 22 4 Norte 13 Norte 0 827 0.2 40
2019-08-16 10:00:00 20.3 7 Sudeste 11 Sudeste 0 827 0.5 43
2019-08-16 09:00:00 16.6 4 Sur 9 Sur 0 827 0.6 53
2019-08-16 08:00:00 16 5 Sudoeste 10 Sudoeste 0 826.8 0 53
2019-08-16 07:00:00 15.2 6 Sudoeste 10 Sudoeste 0 826.5 -0.5 55
2019-08-16 06:00:00 14.9 5 Sur 12 Sudeste 0 826.4 -0.9 57
2019-08-16 05:00:00 15.2 5 Sur 11 Sudoeste 0 826.8 -0.8 56
2019-08-16 04:00:00 15.2 9 Sur 16 Sur 0 827 -0.9 57
2019-08-16 03:00:00 16 9 Sur 14 Sur 0 827.3 -0.6 56
2019-08-16 02:00:00 15.9 9 Sur 16 Sudeste 0 827.6 -0.4 58
2019-08-16 01:00:00 15.8 8 Sur 13 Sudeste 0 827.9 0 58
2019-08-16 00:00:00 15.8 8 Sur 15 Sur 0 827.9 0.4 58
2019-08-15 23:00:00 16.5 6 Este 15 Este 0 828 0.6 56
2019-08-15 22:00:00 16.1 6 Sudeste 19 Nordeste 0 827.9 0.5 59
2019-08-15 21:00:00 18.8 10 Norte 21 Nordeste 0 827.5 0.1 48
2019-08-15 20:00:00 22.2 10 Norte 31 Norte 0 827.4 -0.1 32
2019-08-15 19:00:00 23.2 12 Norte 32 Norte 0 827.4 -0.4 27
2019-08-15 18:00:00 24.2 10 Noroeste 37 Norte 0 827.4 -0.7 26
2019-08-15 17:00:00 23.8 11 Noroeste 35 Norte 0 827.5 -0.7 25
2019-08-15 16:00:00 23.5 15 Norte 33 Norte 0 827.8 -0.6 26
2019-08-15 15:00:00 22.9 13 Norte 33 Norte 0 828.1 -0.3 28
2019-08-15 14:00:00 21.9 14 Norte 32 Norte 0 828.2 0.1 36
2019-08-15 13:00:00 21.7 10 Norte 24 Norte 0 828.4 0.4 39
2019-08-15 12:00:00 19.9 9 Noroeste 29 Noroeste 0 828.4 0.5 56
2019-08-15 11:00:00 20.4 5 Oeste 18 Oeste 0 828.1 0.5 51
2019-08-15 10:00:00 18.8 6 Sudoeste 19 Sudeste 0 828 0.6 55
2019-08-15 09:00:00 17.1 9 Oeste 22 Noroeste 0 827.9 0.8 56
2019-08-15 08:00:00 16.2 11 Sur 17 Sur 0 827.6 0.5 55
2019-08-15 07:00:00 15.1 6 Sudoeste 26 Oeste 0 827.4 0 50
2019-08-15 06:00:00 15.1 9 Sur 17 Sudoeste 0 827.1 -0.4 50
2019-08-15 05:00:00 14.4 10 Sudoeste 18 Sudoeste 0 827.1 -0.9 52
2019-08-15 04:00:00 15.7 8 Oeste 15 Sudoeste 0 827.4 -0.7 45
2019-08-15 03:00:00 15 6 Sur 9 Sur 0 827.5 -0.9 48
2019-08-15 02:00:00 15.4 6 Sudoeste 10 Sudoeste 0 828 -0.3 44
2019-08-15 01:00:00 15.3 4 Sudoeste 8 Sur 0 828.1 0.2 43
2019-08-15 00:00:00 15.3 4 Sudoeste 8 Sur 0 828.4 0.8 41
2019-08-14 23:00:00 16 3 Sudoeste 11 Sudeste 0 828.3 0.9 36
2019-08-14 22:00:00 17.4 4 Sur 18 Oeste 0 827.9 0.6 31
2019-08-14 21:00:00 19.1 4 Sur 17 Nordeste 0 827.6 0.1 28
2019-08-14 20:00:00 22.1 6 Norte 29 Norte 0 827.4 -0.2 24
2019-08-14 19:00:00 22.2 12 Norte 31 Norte 0 827.3 -0.5 22
2019-08-14 18:00:00 22.5 13 Norte 35 Norte 0 827.5 -0.5 21
2019-08-14 17:00:00 23.5 12 Noroeste 30 Norte 0 827.6 -0.4 22
2019-08-14 16:00:00 23.1 12 Noroeste 33 Norte 0 827.8 -0.3 23
2019-08-14 15:00:00 22.6 9 Noroeste 26 Noroeste 0 828 -0.2 25
2019-08-14 14:00:00 21.2 10 Noroeste 24 Norte 0 828 0.1 26
2019-08-14 13:00:00 20.8 5 Este 25 Norte 0 828.1 0.5 27
2019-08-14 12:00:00 19.1 11 Norte 24 Norte 0 828.2 0.7 31
2019-08-14 11:00:00 17.8 8 Norte 20 Norte 0 827.9 0.8 30
2019-08-14 10:00:00 17.6 6 Oeste 10 Noroeste 0 827.6 0.7 29
2019-08-14 09:00:00 14 3 Sur 12 Sudoeste 0 827.5 0.7 39
2019-08-14 08:00:00 11.8 5 Sudoeste 10 Sudoeste 0 827.1 0.2 47
2019-08-14 07:00:00 10.1 6 Sudoeste 10 Oeste 0 826.9 -0.2 52
2019-08-14 06:00:00 11.3 4 Sudoeste 9 Sur 0 826.8 -0.5 46
2019-08-14 05:00:00 12 8 Sudoeste 17 Sudoeste 0 826.9 -0.6 38
2019-08-14 04:00:00 11 9 Sur 14 Sudoeste 0 827.1 -0.2 42
2019-08-14 03:00:00 12 6 Sur 14 Sur 0 827.3 0 38
2019-08-14 02:00:00 10.9 4 Sudoeste 11 Sur 0 827.5 0.2 36
2019-08-14 01:00:00 10.8 4 Sudoeste 10 Sudeste 0 827.3 0.1 36
2019-08-14 00:00:00 10.1 8 Sur 14 Sur 0 827.3 0.7 41
2019-08-13 23:00:00 10.7 8 Sudeste 13 Sudeste 0 827.3 0.8 45
2019-08-13 22:00:00 11.9 6 Sudeste 12 Norte 0 827.2 0.8 37
2019-08-13 21:00:00 14.6 5 Este 24 Norte 0 826.6 0.3 30
2019-08-13 20:00:00 17 10 Norte 28 Nordeste 0 826.5 0.1 25
2019-08-13 19:00:00 17.9 11 Norte 34 Norte 0 826.4 0 25
2019-08-13 18:00:00 18.2 13 Norte 42 Norte 0 826.3 -0.2 23
2019-08-13 17:00:00 19.2 10 Noroeste 30 Norte 0 826.4 -0.4 21
2019-08-13 16:00:00 18.9 12 Norte 33 Norte 0 826.4 -0.4 28
2019-08-13 15:00:00 17.5 8 Norte 30 Norte 0 826.5 -0.3 26
2019-08-13 14:00:00 16 20 Norte 37 Norte 0 826.8 0.4 30
2019-08-13 13:00:00 16 8 Norte 31 Nordeste 0 826.8 0.6 29
2019-08-13 12:00:00 15.2 10 Norte 25 Norte 0 826.8 0.8 38
2019-08-13 11:00:00 14.1 9 Norte 19 Norte 0 826.4 0.6 42
2019-08-13 10:00:00 13.6 5 Sudeste 9 Sudeste 0 826.2 0.8 34
2019-08-13 09:00:00 9.7 4 Sur 9 Sur 0 826 0.6 42
2019-08-13 08:00:00 7.4 5 Sur 9 Sur 0 825.8 0.2 53
2019-08-13 07:00:00 7.5 4 Sur 9 Sur 0 825.4 -0.6 50
2019-08-13 06:00:00 6.9 7 Sur 11 Sudoeste 0 825.4 -0.8 56
2019-08-13 05:00:00 8.1 10 Sur 15 Sudeste 0 825.6 -1.2 53
2019-08-13 04:00:00 7.7 8 Sudeste 13 Sudeste 0 826 -0.6 66
2019-08-13 03:00:00 8.7 7 Sudeste 12 Sudeste 0 826.2 0.1 61
2019-08-13 02:00:00 9.2 3 Sur 13 Nordeste 0 826.8 0.5 57
2019-08-13 01:00:00 9.3 3 Sudoeste 13 Sur 0 826.6 0.2 59
2019-08-13 00:00:00 9.2 4 Sur 10 Oeste 0 826.1 0 52
2019-08-12 23:00:00 8.7 4 Sudeste 17 Este 0 826.3 0.8 63
2019-08-12 22:00:00 9.3 6 Este 20 Este 0 826.4 1 60
2019-08-12 21:00:00 11 5 Nordeste 22 Norte 0 826.1 0.6 47
2019-08-12 20:00:00 14.6 15 Norte 33 Norte 0 825.5 0 37
2019-08-12 19:00:00 13.9 11 Norte 32 Norte 0 825.4 -0.3 37
2019-08-12 18:00:00 15.8 18 Norte 35 Norte 0 825.5 -0.2 34
2019-08-12 17:00:00 15.2 20 Norte 37 Norte 0 825.5 -0.4 32
2019-08-12 16:00:00 15.1 13 Nordeste 37 Norte 0 825.7 -0.3 36
2019-08-12 15:00:00 14.3 20 Norte 40 Norte 0 825.7 0 42
2019-08-12 14:00:00 13.7 14 Norte 35 Norte 0 825.9 0.6 45
2019-08-12 13:00:00 12.5 15 Norte 33 Norte 0 826 0.9 51
2019-08-12 12:00:00 11.8 18 Norte 32 Norte 0 825.7 1.1 55
2019-08-12 11:00:00 10.6 12 Nordeste 24 Norte 0 825.3 1.3 62
2019-08-12 10:00:00 8.6 9 Norte 28 Norte 0 825.1 1.4 71
2019-08-12 09:00:00 6.5 6 Norte 15 Noroeste 0 824.6 1 88
2019-08-12 08:00:00 5.9 3 Sudoeste 10 Oeste 0 824 0.3 84
2019-08-12 07:00:00 6.1 4 Noroeste 14 Oeste 0 823.7 -0.3 87
2019-08-12 06:00:00 6.3 5 Oeste 17 Oeste 0 823.6 -0.6 86
2019-08-12 05:00:00 7.2 4 Sudeste 15 Sudeste 0 823.7 -0.8 88
2019-08-12 04:00:00 7.6 7 Sudeste 25 Sur 0 824 -0.6 89
2019-08-12 03:00:00 7.3 8 Sur 18 Nordeste 0 824.2 -0.4 85
2019-08-12 02:00:00 8.3 9 Este 28 Sur 0 824.5 -0.3 70
2019-08-12 01:00:00 8.4 15 Sudeste 36 Sudoeste 0 824.6 0.2 65
2019-08-12 00:00:00 10.4 11 Sudeste 27 Sudeste 0 824.6 0.6 43
2019-08-11 23:00:00 10.7 4 Nordeste 22 Oeste 0 824.8 1.1 46
2019-08-11 22:00:00 11.7 10 Sudeste 29 Norte 0 824.4 0.7 51
2019-08-11 21:00:00 13.1 9 Norte 26 Norte 0 824 0.2 49
2019-08-11 20:00:00 15.6 6 Este 35 Norte 0 823.7 0 41
2019-08-11 19:00:00 15.1 11 Norte 30 Norte 0 823.7 -0.1 49
2019-08-11 18:00:00 15.1 14 Noroeste 36 Noroeste 0 823.8 -0.1 52
2019-08-11 17:00:00 16.3 10 Norte 37 Norte 0 823.7 -0.3 49
2019-08-11 16:00:00 17.1 14 Norte 45 Norte 0 823.8 -0.2 45
2019-08-11 15:00:00 17.1 10 Norte 34 Noroeste 0 823.9 -0.2 51
2019-08-11 14:00:00 16.3 11 Noroeste 29 Norte 0 824 0.5 49
2019-08-11 13:00:00 19.1 9 Oeste 24 Norte 0 824 0.7 40
2019-08-11 12:00:00 15.6 6 Oeste 25 Oeste 0 824.1 0.9 51
2019-08-11 11:00:00 17.3 10 Sudoeste 32 Sudoeste 0 823.5 0.6 41
2019-08-11 10:00:00 16.6 14 Sur 30 Sudoeste 0 823.3 0.5 42
2019-08-11 09:00:00 12.7 2 Sudeste 12 Nordeste 0 823.2 -1.1 66
2019-08-11 08:00:00 11 3 Sudoeste 28 Sur 0 822.9 -0.7 66
2019-08-11 07:00:00 9.9 13 Sudeste 23 Norte 0 822.8 -0.8 77
2019-08-11 06:00:00 10.7 15 Noroeste 46 Norte 0 824.3 0.4 70
2019-08-11 05:00:00 11.5 10 Sur 22 Sudoeste 0 823.6 -0.6 66
2019-08-11 04:00:00 12 12 Oeste 22 Sudoeste 0 823.6 -1.1 62
2019-08-11 03:00:00 12.6 9 Sudoeste 20 Sudoeste 0 823.9 -1 59
2019-08-11 02:00:00 12.6 13 Sudoeste 20 Sudoeste 0 824.2 -1.3 58
2019-08-11 01:00:00 12.8 6 Sudoeste 17 Sur 0 824.7 -0.5 60
2019-08-11 00:00:00 12.5 6 Sur 12 Sur 0 824.9 -0.5 64
2019-08-10 23:00:00 13.8 8 Sur 12 Sur 0 825.5 0.1 59
2019-08-10 22:00:00 15.6 5 Sudoeste 11 Oeste 0 825.2 0 53
2019-08-10 21:00:00 16.3 4 Sur 16 Sudoeste 0 825.4 -0.1 44
2019-08-10 20:00:00 18.3 8 Sur 41 Sudoeste 0 825.4 -0.4 31
2019-08-10 19:00:00 21.2 14 Sur 31 Sur 0 825.2 -1.1 26
2019-08-10 18:00:00 21.8 9 Norte 20 Norte 0 825.5 -0.8 45
2019-08-10 17:00:00 20.7 7 Norte 20 Norte 0 825.8 -0.7 50
2019-08-10 16:00:00 19.8 4 Nordeste 18 Norte 0 826.3 -0.2 61
2019-08-10 15:00:00 18.5 6 Norte 18 Norte 0 826.3 -0.2 66
2019-08-10 14:00:00 18.9 7 Norte 19 Norte 0 826.5 -0.1 66
2019-08-10 13:00:00 17.1 6 Nordeste 17 Norte 0 826.5 0.2 72
2019-08-10 12:00:00 16.5 3 Norte 15 Norte 0 826.5 1 74
2019-08-10 11:00:00 13.8 3 Norte 13 Norte 0 826.6 0.9 82
2019-08-10 10:00:00 15.6 7 Nordeste 39 Sudeste 0 826.3 0.7 71
2019-08-10 09:00:00 14.3 25 Sur 38 Sur 0 825.5 0 53
2019-08-10 08:00:00 9.7 4 Este 26 Sur 0 825.7 0.4 93
2019-08-10 07:00:00 9.8 6 Sudoeste 16 Oeste 0 825.6 0.2 93
2019-08-10 06:00:00 10.2 6 Oeste 20 Sudoeste 0 825.5 0.1 93
2019-08-10 05:00:00 10.2 5 Oeste 17 Sudoeste 0 825.3 -0.5 93
2019-08-10 04:00:00 10.6 10 Sur 23 Sur 0 825.4 -0.5 90
2019-08-10 03:00:00 10.4 11 Sudoeste 22 Sudoeste 0 825.4 -0.3 87
2019-08-10 02:00:00 11 13 Sudoeste 19 Sudoeste 0 825.8 0 82
2019-08-10 01:00:00 11.8 8 Oeste 27 Sur 0 825.9 0.7 82
2019-08-10 00:00:00 12.7 11 Sur 26 Sur 1.2 825.7 0.4 86
2019-08-09 23:00:00 13.1 7 Sudoeste 44 Sudoeste 1.6 825.8 0.2 95
2019-08-09 22:00:00 14.6 12 Sudeste 42 Sur 1.6 825.2 0.3 87
2019-08-09 21:00:00 11.2 4 Sudeste 39 Noroeste 0.8 825.3 0.8 96
2019-08-09 20:00:00 11.5 9 Norte 64 Noroeste 0 825.6 1 96
2019-08-09 19:00:00 14.8 11 Este 37 Sudoeste 0 824.9 0.4 94
2019-08-09 18:00:00 17.2 11 Sur 30 Oeste 0 824.5 -0.3 80
2019-08-09 17:00:00 19.2 13 Sudeste 36 Sudeste 0 824.6 -0.2 70
2019-08-09 16:00:00 20.4 9 Norte 35 Noroeste 0 824.5 -0.2 63
2019-08-09 15:00:00 20.1 9 Sudoeste 32 Sudoeste 0 824.8 0.4 65
2019-08-09 14:00:00 20 13 Sudoeste 28 Nordeste 0 824.8 0.9 59
2019-08-09 13:00:00 21.3 8 Oeste 31 Noroeste 0 824.7 1.1 53
2019-08-09 12:00:00 21.3 9 Norte 24 Nordeste 0 824.4 1.3 47
2019-08-09 11:00:00 21.2 10 Noroeste 26 Oeste 0 823.9 1.1 44
2019-08-09 10:00:00 21.1 8 Este 46 Sudeste 0 823.6 0.8 42
2019-08-09 09:00:00 18.2 26 Sur 51 Sudoeste 0 823.1 0.3 44
2019-08-09 08:00:00 16.8 33 Sur 49 Sur 0 822.8 -0.3 49
2019-08-09 07:00:00 16.3 26 Sur 50 Sudoeste 0 822.8 -0.4 55
2019-08-09 06:00:00 15.8 27 Sur 41 Sur 0 822.8 -0.5 60
2019-08-09 05:00:00 17.3 23 Sur 45 Sudoeste 0 823.1 -0.7 49
2019-08-09 04:00:00 18.5 29 Sudoeste 65 Sudoeste 0 823.2 -0.7 43
2019-08-09 03:00:00 18.6 32 Sudoeste 58 Sudoeste 0 823.3 -0.6 45
2019-08-09 02:00:00 18.3 21 Sur 46 Sudoeste 0 823.8 -0.1 49
2019-08-09 01:00:00 17.4 12 Sur 23 Sur 0 823.9 0.3 55
2019-08-09 00:00:00 18 9 Sudeste 23 Sudoeste 0 823.9 0.8 56
2019-08-08 23:00:00 18.3 13 Sur 26 Sur 0 823.9 1 58
2019-08-08 22:00:00 19.6 10 Sudeste 44 Sudoeste 0 823.6 0.7 53
2019-08-08 21:00:00 20.8 25 Sudoeste 46 Oeste 0 823.1 0.2 43
2019-08-08 20:00:00 21.5 18 Oeste 44 Oeste 0 822.9 -0.2 44
2019-08-08 19:00:00 21.9 23 Sudoeste 48 Sur 0 822.9 -0.8 47
2019-08-08 18:00:00 24.3 10 Sudoeste 41 Sudoeste 0 822.9 -0.9 41
2019-08-08 17:00:00 24.7 22 Sudoeste 41 Oeste 0 823.1 -0.8 39
2019-08-08 16:00:00 22.5 19 Sudoeste 35 Sur 0 823.7 -0.2 43
2019-08-08 15:00:00 25.6 12 Sudoeste 28 Sudeste 0 823.8 -0.1 36
2019-08-08 14:00:00 22.2 10 Oeste 26 Oeste 0 823.9 0.2 47
2019-08-08 13:00:00 22.4 4 Oeste 20 Oeste 0 823.9 0.4 53
2019-08-08 12:00:00 19.5 7 Oeste 22 Noroeste 0 823.9 0.4 63
2019-08-08 11:00:00 17.9 10 Noroeste 33 Sur 0 823.7 0.5 68
2019-08-08 10:00:00 19.4 8 Oeste 23 Sudoeste 0 823.5 0.4 61
2019-08-08 09:00:00 14.8 6 Sudoeste 28 Oeste 0 823.5 0.4 78
2019-08-08 08:00:00 14.4 11 Sudoeste 31 Sur 0 823.2 -0.2 64
2019-08-08 07:00:00 13 17 Sudoeste 36 Sur 0 823.1 -0.3 62
2019-08-08 06:00:00 12.7 9 Sur 31 Sudoeste 0 823.1 -0.3 71
2019-08-08 05:00:00 12.6 18 Sudoeste 38 Sur 0 823.4 0 75
2019-08-08 04:00:00 12.9 12 Sur 30 Sur 0 823.4 0 78
2019-08-08 03:00:00 13.4 15 Sudoeste 35 Sur 0 823.4 0 74
2019-08-08 02:00:00 13.6 15 Sudoeste 26 Sudoeste 0 823.4 -0.2 67
2019-08-08 01:00:00 13.8 11 Sudoeste 25 Sudoeste 0 823.4 0.5 62
2019-08-08 00:00:00 13.9 13 Sudoeste 28 Sudoeste 0 823.4 0.6 68
2019-08-07 23:00:00 13.8 12 Sur 30 Sudoeste 0 823.6 1.1 71
2019-08-07 22:00:00 14.1 13 Sur 25 Sur 0 822.9 0.1 64
2019-08-07 21:00:00 15.1 10 Noroeste 30 Oeste 0 822.8 -0.1 64
2019-08-07 20:00:00 15.5 10 Este 35 Sur 0 822.5 0.2 54
2019-08-07 19:00:00 15.3 14 Sur 36 Sudoeste 0.2 822.8 -0.5 69
2019-08-07 18:00:00 15.4 9 Nordeste 37 Norte 0.2 822.9 -0.4 69
2019-08-07 17:00:00 17.2 19 Sur 37 Sur 0 822.3 -1 49
2019-08-07 16:00:00 16.5 27 Sur 46 Sur 0 823.3 0.1 54
2019-08-07 15:00:00 18.8 16 Sudoeste 33 Sudoeste 0 823.3 0.3 51
2019-08-07 14:00:00 17.8 8 Noroeste 31 Sur 0 823.3 0.9 53
2019-08-07 13:00:00 19.4 5 Oeste 21 Oeste 0 823.2 1.2 52
2019-08-07 12:00:00 19.6 7 Noroeste 23 Noroeste 0 823 1.2 52
2019-08-07 11:00:00 20.5 4 Noroeste 16 Oeste 0 822.4 0.9 50
2019-08-07 10:00:00 18 5 Oeste 16 Oeste 0 822 1 53
2019-08-07 09:00:00 16.3 6 Sudoeste 17 Sudoeste 0 821.8 1.4 62
2019-08-07 08:00:00 14.1 8 Sudoeste 15 Oeste 0 821.5 0.3 61
2019-08-07 07:00:00 15.7 7 Noroeste 14 Sur 0 821 -0.3 51
2019-08-07 06:00:00 15.2 6 Sudoeste 12 Sur 0 820.4 -0.9 53
2019-08-07 05:00:00 15.2 9 Sudoeste 28 Sur 0 821.2 -0.3 55
2019-08-07 04:00:00 16.3 4 Sur 14 Sudoeste 0 821.3 -1.2 51
2019-08-07 03:00:00 16.8 6 Sur 21 Noroeste 0 821.3 -1 52
2019-08-07 02:00:00 16.2 5 Sur 21 Sudoeste 0 821.5 -1 54
2019-08-07 01:00:00 16.4 6 Sur 32 Noroeste 0 822.5 0.4 53
2019-08-07 00:00:00 17.8 2 Sudoeste 14 Noroeste 0 822.3 0.3 47
2019-08-06 23:00:00 18.2 5 Noroeste 13 Norte 0 822.5 0.7 47
2019-08-06 22:00:00 19.4 4 Sudoeste 9 Oeste 0 822.1 0.2 39
2019-08-06 21:00:00 20.8 2 Sudeste 38 Oeste 0 822 -0.1 33
2019-08-06 20:00:00 22.8 7 Noroeste 31 Oeste 0 821.8 -0.7 22
2019-08-06 19:00:00 24.5 14 Oeste 39 Oeste 0 821.9 -0.8 19
2019-08-06 18:00:00 26 19 Oeste 43 Noroeste 0 822.1 -1.1 18
2019-08-06 17:00:00 26.6 10 Sudoeste 35 Oeste 0 822.5 -1.1 18
2019-08-06 16:00:00 27.1 10 Oeste 25 Sur 0 822.7 -1.1 18
2019-08-06 15:00:00 23.6 13 Noroeste 30 Norte 0 823.2 -0.5 26
2019-08-06 14:00:00 24.4 9 Noroeste 28 Norte 0 823.6 0 27
2019-08-06 13:00:00 24 14 Norte 26 Norte 0 823.8 0.3 31
2019-08-06 12:00:00 25 8 Sudoeste 29 Sur 0 823.7 0 18
2019-08-06 11:00:00 22.8 20 Sur 46 Sur 0 823.6 0 23
2019-08-06 10:00:00 21.3 18 Sur 32 Sudeste 0 823.5 0.2 29
2019-08-06 09:00:00 18.9 6 Sur 10 Sur 0 823.7 0.3 43
2019-08-06 08:00:00 14.5 3 Noroeste 20 Sudoeste 0 823.6 0 55
2019-08-06 07:00:00 15.6 7 Oeste 19 Sudoeste 0 823.3 -0.5 45
2019-08-06 06:00:00 15.3 9 Sudoeste 16 Sudoeste 0 823.4 -0.7 50
2019-08-06 05:00:00 16.9 9 Sudoeste 18 Sudoeste 0 823.6 -0.7 43
2019-08-06 04:00:00 16 9 Sudoeste 14 Sudoeste 0 823.8 -0.6 47
2019-08-06 03:00:00 17.1 8 Sudoeste 15 Sudoeste 0 824.1 -0.4 44
2019-08-06 02:00:00 17.1 5 Sur 12 Sur 0 824.3 -0.1 46
2019-08-06 01:00:00 17.7 5 Sudoeste 14 Sur 0 824.4 0.3 43
2019-08-06 00:00:00 18.2 6 Sudeste 15 Sudeste 0 824.5 0.7 33
2019-08-05 23:00:00 19.5 7 Sudeste 16 Sur 0 824.4 1 30
2019-08-05 22:00:00 19.8 14 Sur 31 Sur 0 824.1 0.7 22
2019-08-05 21:00:00 22.8 12 Sudoeste 31 Oeste 0 823.8 0.2 18
2019-08-05 20:00:00 25.3 15 Sudoeste 37 Oeste 0 823.4 -0.4 16
2019-08-05 19:00:00 26.3 13 Sur 31 Sudoeste 0 823.4 -0.6 17
2019-08-05 18:00:00 26.6 14 Sur 32 Sur 0 823.6 -0.8 15
2019-08-05 17:00:00 27.5 10 Sur 32 Oeste 0 823.8 -0.7 17
2019-08-05 16:00:00 26.7 9 Este 36 Sur 0 824 -0.7 20
2019-08-05 15:00:00 27.6 12 Sur 32 Sudoeste 0 824.4 -0.5 22
2019-08-05 14:00:00 26.5 16 Oeste 28 Sudoeste 0 824.5 -0.5 22
2019-08-05 13:00:00 25.2 6 Este 22 Norte 0 824.7 -0.2 28
2019-08-05 12:00:00 23 11 Norte 26 Norte 0 824.9 0 31
2019-08-05 11:00:00 22.6 8 Nordeste 17 Sur 0 825 0.3 35
2019-08-05 10:00:00 23.2 7 Sudoeste 21 Sur 0 824.9 0.3 28
2019-08-05 09:00:00 21.2 10 Sur 18 Sudoeste 0 824.9 0.3 32
2019-08-05 08:00:00 16 8 Sur 12 Sur 0 824.7 -0.1 46
2019-08-05 07:00:00 15.2 5 Sur 13 Sur 0 824.6 -0.3 46
2019-08-05 06:00:00 15.1 6 Sur 16 Sudoeste 0 824.6 -0.5 47
2019-08-05 05:00:00 15.3 8 Sudoeste 13 Sudoeste 0 824.8 -0.6 48
2019-08-05 04:00:00 15.3 4 Sudoeste 10 Sudoeste 0 824.9 -0.6 48
2019-08-05 03:00:00 15.7 8 Sudoeste 11 Sudoeste 0 825.1 -0.4 47
2019-08-05 02:00:00 17.5 6 Sudoeste 14 Sudoeste 0 825.4 -0.2 43
2019-08-05 01:00:00 17 6 Sur 10 Sudeste 0 825.5 0.3 41
2019-08-05 00:00:00 17.8 4 Sudoeste 9 Sudoeste 0 825.5 0.8 39
2019-08-04 23:00:00 18.6 6 Sur 11 Sur 0 825.6 1.3 33
2019-08-04 22:00:00 19.8 5 Sur 18 Sur 0 825.2 1.1 24
2019-08-04 21:00:00 22.6 15 Sur 66 Sudoeste 0 824.7 0.6 16
2019-08-04 20:00:00 25.4 14 Sudoeste 34 Sudoeste 0 824.3 0.1 15
2019-08-04 19:00:00 26.5 9 Noroeste 29 Noroeste 0 824.1 -0.4 16
2019-08-04 18:00:00 27.3 13 Oeste 31 Oeste 0 824.1 -0.4 14
2019-08-04 17:00:00 26.8 15 Sudoeste 36 Oeste 0 824.2 -0.4 14
2019-08-04 16:00:00 26.1 21 Sur 36 Oeste 0 824.5 -0.4 16
2019-08-04 15:00:00 26.5 13 Oeste 38 Sudoeste 0 824.5 -0.3 17
2019-08-04 14:00:00 25.9 10 Nordeste 30 Norte 0 824.6 -0.1 25
2019-08-04 13:00:00 25.1 8 Norte 30 Nordeste 0 824.9 0.4 30
2019-08-04 12:00:00 23.7 10 Noroeste 28 Noroeste 0 824.8 0.4 25
2019-08-04 11:00:00 23.1 8 Oeste 37 Sudoeste 0 824.7 0.6 25
2019-08-04 10:00:00 22.8 6 Sur 23 Sudoeste 0 824.5 0.5 28
2019-08-04 09:00:00 21.2 6 Sudeste 23 Oeste 0 824.4 0.3 33
2019-08-04 08:00:00 16.9 10 Sur 13 Sur 0 824.1 -0.1 41
2019-08-04 07:00:00 16 6 Sudoeste 13 Sur 0 824 -0.2 46
2019-08-04 06:00:00 15.8 9 Sudoeste 13 Sudoeste 0 824.1 0 48
2019-08-04 05:00:00 16.2 8 Sur 14 Sur 0 824.2 0.1 46
2019-08-04 04:00:00 16.6 8 Sur 23 Sur 0 824.2 -0.1 45
2019-08-04 03:00:00 17.8 13 Sur 22 Sur 0 824.1 -0.3 33
2019-08-04 02:00:00 18.5 9 Sudoeste 21 Sur 0 824.1 -0.4 25
2019-08-04 01:00:00 18.9 7 Sur 14 Sudoeste 0 824.3 0.4 25
2019-08-04 00:00:00 18.4 6 Sur 12 Sur 0 824.4 0.9 25
2019-08-03 23:00:00 18.9 5 Sudoeste 26 Sur 0 824.5 1 22
2019-08-03 22:00:00 21.3 19 Sur 32 Sur 0 823.9 0.5 17
2019-08-03 21:00:00 22.7 18 Sur 31 Sudoeste 0 823.5 -0.1 16
2019-08-03 20:00:00 25.1 14 Sudoeste 28 Sudoeste 0 823.5 -0.4 16
2019-08-03 19:00:00 26.8 11 Oeste 40 Sur 0 823.4 -0.7 16
2019-08-03 18:00:00 26.8 14 Sudoeste 42 Sudoeste 0 823.6 -0.8 17
2019-08-03 17:00:00 27.7 11 Sudoeste 42 Oeste 0 823.9 -0.7 17
2019-08-03 16:00:00 26.1 14 Oeste 39 Oeste 0 824.1 -0.6 22
2019-08-03 15:00:00 27.7 11 Sudoeste 39 Norte 0 824.4 -0.4 19
2019-08-03 14:00:00 26.1 15 Norte 33 Nordeste 0 824.6 0 20
2019-08-03 13:00:00 26.1 8 Sudoeste 28 Oeste 0 824.7 0.2 21
2019-08-03 12:00:00 25.2 10 Sudoeste 21 Oeste 0 824.8 0.6 22
2019-08-03 11:00:00 24.9 9 Sudoeste 30 Sur 0 824.6 0.6 20
2019-08-03 10:00:00 22.3 18 Sur 33 Sur 0 824.5 0.6 23
2019-08-03 09:00:00 20.2 24 Sur 39 Sudeste 0 824.2 0.5 25
2019-08-03 08:00:00 18.1 27 Sur 45 Sudeste 0 824 0 27
2019-08-03 07:00:00 17.6 30 Sur 42 Sur 0 823.9 -0.2 30
2019-08-03 06:00:00 18.3 26 Sur 35 Sur 0 823.7 -0.6 30
2019-08-03 05:00:00 17.6 26 Sur 32 Sur 0 824 -0.5 37
2019-08-03 04:00:00 17.9 25 Sur 32 Sur 0 824.1 -0.7 35
2019-08-03 03:00:00 17.4 27 Sudeste 37 Sudeste 0 824.3 -0.6 41
2019-08-03 02:00:00 18.1 25 Sudeste 36 Sudeste 0 824.5 -0.5 40
2019-08-03 01:00:00 18.5 21 Sudeste 31 Sudeste 0 824.8 -0.3 40
2019-08-03 00:00:00 19.3 9 Sudeste 28 Sudeste 0 824.9 0 30
2019-08-02 23:00:00 18.2 9 Sudeste 17 Sudeste 0 825 0.4 36
2019-08-02 22:00:00 19.2 8 Sudeste 15 Nordeste 0 825.1 0.6 33
2019-08-02 21:00:00 22 6 Norte 18 Nordeste 0 824.9 0.3 28
2019-08-02 20:00:00 24.9 8 Norte 26 Norte 0 824.6 -0.3 25
2019-08-02 19:00:00 26.4 6 Noroeste 33 Norte 0 824.5 -0.5 21
2019-08-02 18:00:00 26.5 12 Norte 26 Norte 0 824.6 -0.6 22
2019-08-02 17:00:00 25.6 13 Norte 32 Norte 0 824.9 -0.4 24
2019-08-02 16:00:00 26.4 11 Norte 29 Nordeste 0 825 -0.4 23
2019-08-02 15:00:00 25.6 9 Norte 31 Norte 0 825.2 -0.2 24
2019-08-02 14:00:00 24.4 10 Norte 29 Nordeste 0 825.3 0.1 26
2019-08-02 13:00:00 24.1 7 Norte 24 Norte 0 825.4 0.5 29
2019-08-02 12:00:00 22.6 9 Nordeste 18 Norte 0 825.4 0.8 31
2019-08-02 11:00:00 21.5 8 Norte 14 Nordeste 0 825.2 0.9 30
2019-08-02 10:00:00 21.5 6 Sudeste 15 Sudeste 0 824.9 0.8 31
2019-08-02 09:00:00 18.6 10 Sudeste 15 Sur 0 824.6 0.7 34
2019-08-02 08:00:00 15.6 9 Sur 15 Sur 0 824.3 0.4 40
2019-08-02 07:00:00 13.5 10 Sur 15 Sur 0 824.1 0 47
2019-08-02 06:00:00 13.9 8 Sur 15 Sur 0 823.9 -0.3 46
2019-08-02 05:00:00 14.5 12 Sur 14 Sur 0 823.9 -0.5 43
2019-08-02 04:00:00 15.2 10 Sur 14 Sur 0 824.1 -0.4 45
2019-08-02 03:00:00 15.3 10 Sur 15 Sur 0 824.2 -0.3 48
2019-08-02 02:00:00 15.1 9 Sur 13 Sur 0 824.4 0.1 57
2019-08-02 01:00:00 15.2 8 Sudeste 12 Sudeste 0 824.5 0.6 60
2019-08-02 00:00:00 15.6 5 Sur 11 Sudeste 0 824.5 1.2 58
2019-08-01 23:00:00 16.8 3 Sur 11 Sudoeste 0 824.3 1.4 38
2019-08-01 22:00:00 18.8 5 Noroeste 17 Noroeste 0 823.9 1.3 31
2019-08-01 21:00:00 20.7 5 Nordeste 23 Oeste 0 823.3 0.7 28
2019-08-01 20:00:00 22.4 10 Norte 36 Norte 0 822.9 0.4 27
2019-08-01 19:00:00 23.5 12 Norte 33 Oeste 0 822.6 -0.2 26
2019-08-01 18:00:00 24.6 8 Noroeste 42 Norte 0 822.6 -0.3 25
2019-08-01 17:00:00 23.9 15 Norte 40 Norte 0 822.5 -0.3 27
2019-08-01 16:00:00 23 14 Norte 42 Sudoeste 0 822.8 0.1 27
2019-08-01 15:00:00 22.6 15 Norte 35 Noroeste 0 822.9 0.4 27
2019-08-01 14:00:00 22.8 10 Noroeste 34 Norte 0 822.8 0.6 32
2019-08-01 13:00:00 22.4 11 Noroeste 31 Noroeste 0 822.7 0.8 39
2019-08-01 12:00:00 20.9 10 Norte 30 Norte 0 822.5 0.8 42
2019-08-01 11:00:00 21.4 10 Oeste 27 Oeste 0 822.2 0.9 30
2019-08-01 10:00:00 20.6 6 Nordeste 27 Sur 0 821.9 1 51
2019-08-01 09:00:00 19.4 11 Sudeste 41 Sur 0 821.7 0.9 42
2019-08-01 08:00:00 18.4 23 Sur 48 Sur 0 821.3 0.1 43
2019-08-01 07:00:00 14.2 39 Sur 67 Sudeste 0 820.9 -0.4 85
2019-08-01 06:00:00 14.4 41 Sudeste 67 Sudeste 0 820.8 -1.2 83
2019-08-01 05:00:00 16.1 15 Sur 59 Sur 0 821.2 -1.2 71
2019-08-01 04:00:00 16.4 23 Sudeste 64 Sudeste 0 821.3 -1.3 74
2019-08-01 03:00:00 16.2 18 Sudeste 55 Sudeste 0 822 -0.9 78
2019-08-01 02:00:00 16.7 12 Este 59 Sudeste 0 822.4 -0.3 74
2019-08-01 01:00:00 16.8 32 Sudeste 54 Sudeste 0 822.6 -0.2 74
2019-08-01 00:00:00 17.9 27 Sur 59 Sudeste 0.2 822.9 0 63
2019-07-31 23:00:00 18.8 24 Sur 41 Sudeste 0 822.7 0 59
2019-07-31 22:00:00 19.4 8 Sur 22 Sudeste 0 822.8 -0.1 50
2019-07-31 21:00:00 20.6 6 Nordeste 22 Noroeste 0 822.9 -0.2 40
2019-07-31 20:00:00 23.3 8 Sudoeste 34 Sudeste 0 822.7 -0.7 31
2019-07-31 19:00:00 23 14 Oeste 45 Oeste 0 822.9 -0.7 33
2019-07-31 18:00:00 23.6 14 Oeste 45 Sudoeste 0 823.1 -0.5 31
2019-07-31 17:00:00 23.6 23 Oeste 49 Sudoeste 0 823.4 -0.5 28
2019-07-31 16:00:00 23.6 16 Sudoeste 53 Oeste 0 823.6 -0.4 31
2019-07-31 15:00:00 23.3 17 Oeste 45 Sudoeste 0 823.6 -0.4 33
2019-07-31 14:00:00 23.3 11 Oeste 33 Sudoeste 0 823.9 0.1 37
2019-07-31 13:00:00 22 12 Sur 27 Sur 0 824 0.7 45
2019-07-31 12:00:00 21.1 8 Nordeste 24 Norte 0 824 1.1 50
2019-07-31 11:00:00 19.5 10 Norte 46 Sur 0 823.8 0.3 54
2019-07-31 10:00:00 15.8 37 Sur 52 Sur 0 823.3 -0.4 66
2019-07-31 09:00:00 14.6 46 Sur 62 Sur 0 822.9 -0.7 70
2019-07-31 08:00:00 13.6 35 Sur 66 Sudeste 0 823.5 -0.1 75
2019-07-31 07:00:00 13.7 30 Sudeste 62 Sudeste 0 823.7 -0.2 81
2019-07-31 06:00:00 12.9 36 Sur 45 Sur 0 823.6 -0.4 82
2019-07-31 05:00:00 14.7 21 Sur 38 Sur 0 823.6 -0.7 56
2019-07-31 04:00:00 14.6 27 Sudeste 41 Sudeste 0 823.9 -0.4 44
2019-07-31 03:00:00 13.2 30 Sudeste 41 Sudeste 0 824 -0.6 49
2019-07-31 02:00:00 13.5 17 Sur 39 Sudeste 0 824.3 -0.4 42
2019-07-31 01:00:00 12.2 26 Sudeste 36 Sudeste 0 824.3 -0.2 54
2019-07-31 00:00:00 10.5 5 Este 14 Sur 0 824.6 0.4 55
2019-07-30 23:00:00 10.6 7 Sudeste 12 Sudeste 0 824.7 0.7 53
2019-07-30 22:00:00 11.9 6 Sudeste 10 Este 0 824.5 0.6 47
2019-07-30 21:00:00 15.2 2 Noroeste 18 Nordeste 0 824.2 0.2 40
2019-07-30 20:00:00 17.5 14 Norte 23 Norte 0 824 -0.2 38
2019-07-30 19:00:00 18.7 12 Norte 28 Norte 0 823.9 -0.6 32
2019-07-30 18:00:00 19.9 9 Nordeste 30 Norte 0 824 -0.5 30
2019-07-30 17:00:00 19.9 14 Nordeste 30 Norte 0 824.2 -0.4 29
2019-07-30 16:00:00 19.6 10 Noroeste 30 Norte 0 824.5 0 26
2019-07-30 15:00:00 18.2 7 Norte 29 Nordeste 0 824.5 0 29
2019-07-30 14:00:00 16 9 Norte 24 Norte 0 824.6 0.5 34
2019-07-30 13:00:00 15.5 8 Norte 22 Norte 0 824.5 0.4 41
2019-07-30 12:00:00 13.6 8 Norte 21 Nordeste 0 824.5 0.9 44
2019-07-30 11:00:00 12.8 6 Norte 26 Oeste 0 824.1 0.9 53
2019-07-30 10:00:00 11.8 8 Nordeste 15 Nordeste 0 824.1 1.2 63
2019-07-30 09:00:00 12.1 5 Sudeste 10 Oeste 0 823.6 0.8 52
2019-07-30 08:00:00 7.3 8 Sudoeste 17 Oeste 0 823.2 0.4 69
2019-07-30 07:00:00 6.7 11 Sur 23 Sur 0 822.9 0 72
2019-07-30 06:00:00 7.5 12 Sudoeste 21 Sur 0 822.8 -0.3 66
2019-07-30 05:00:00 6.9 13 Sur 22 Sudoeste 0 822.8 -0.2 71
2019-07-30 04:00:00 7.1 12 Sudoeste 21 Sudoeste 0 822.9 -0.3 69
2019-07-30 03:00:00 8.3 10 Sur 22 Sudoeste 0 823.1 0 62
2019-07-30 02:00:00 8.9 12 Sudoeste 18 Sur 0 823 -0.1 61
2019-07-30 01:00:00 10.7 9 Noroeste 22 Oeste 0 823.2 0.9 50
2019-07-30 00:00:00 11.9 7 Nordeste 22 Sudeste 0 823.1 1.2 48
2019-07-29 23:00:00 13.1 8 Oeste 30 Oeste 0 823.1 1.5 43
2019-07-29 22:00:00 14.6 7 Sudeste 29 Noroeste 0 822.3 0.8 38
2019-07-29 21:00:00 16.7 13 Noroeste 35 Noroeste 0 821.9 0.5 32
2019-07-29 20:00:00 19 12 Noroeste 46 Noroeste 0 821.6 0.3 30
2019-07-29 19:00:00 19.8 14 Norte 46 Noroeste 0 821.5 0.3 39
2019-07-29 18:00:00 20.8 15 Norte 39 Norte 0 821.4 0.1 36
2019-07-29 17:00:00 21.7 15 Norte 45 Noroeste 0 821.3 0.1 31
2019-07-29 16:00:00 22.7 11 Noroeste 42 Nordeste 0 821.2 -0.1 23
2019-07-29 15:00:00 21.9 14 Norte 41 Noroeste 0 821.3 0.1 28
2019-07-29 14:00:00 21.3 10 Norte 28 Norte 0 821.2 0.3 35
2019-07-29 13:00:00 19.5 12 Norte 27 Noroeste 0 821.3 0.7 43
2019-07-29 12:00:00 20.2 5 Nordeste 23 Norte 0 821.2 0.8 39
2019-07-29 11:00:00 18.4 9 Nordeste 24 Sur 0 820.9 0.5 46
2019-07-29 10:00:00 18.5 4 Norte 17 Sur 0 820.6 0.4 40
2019-07-29 09:00:00 15.7 3 Este 9 Norte 0 820.4 0.3 44
2019-07-29 08:00:00 10.4 4 Sur 11 Noroeste 0 820.4 0.4 61
2019-07-29 07:00:00 10.7 5 Sur 23 Noroeste 0 820.2 0 50
2019-07-29 06:00:00 14 10 Noroeste 22 Noroeste 0 820.1 -0.2 39
2019-07-29 05:00:00 13.4 9 Sudeste 21 Sur 0 820 -0.3 41
2019-07-29 04:00:00 14.4 8 Sudeste 23 Noroeste 0 820.2 -0.4 37
2019-07-29 03:00:00 14.7 9 Sudeste 27 Sudeste 0 820.3 -0.3 36
2019-07-29 02:00:00 15.2 15 Sur 30 Sur 0 820.3 -0.5 35
2019-07-29 01:00:00 14.9 5 Este 21 Sudeste 0 820.6 0.2 31
2019-07-29 00:00:00 12.9 9 Sur 13 Sudoeste 0 820.6 0.4 33
2019-07-28 23:00:00 13.6 7 Sudeste 24 Sur 0 820.8 0.9 32
2019-07-28 22:00:00 14.9 6 Sudeste 18 Noroeste 0 820.4 0.8 28
2019-07-28 21:00:00 17.1 8 Norte 33 Oeste 0 820.2 0.4 30
2019-07-28 20:00:00 18.9 10 Norte 27 Noroeste 0 819.9 0 27
2019-07-28 19:00:00 19.3 11 Norte 32 Norte 0 819.6 -0.6 23
2019-07-28 18:00:00 20.3 7 Oeste 37 Norte 0 819.8 -0.3 17
2019-07-28 17:00:00 20.1 9 Noroeste 31 Oeste 0 819.9 -0.3 26
2019-07-28 16:00:00 18.3 12 Norte 30 Norte 0 820.2 -0.1 30
2019-07-28 15:00:00 17.6 12 Noroeste 32 Norte 0 820.1 -0.1 32
2019-07-28 14:00:00 17.8 8 Noroeste 29 Norte 0 820.2 0.1 35
2019-07-28 13:00:00 16.4 10 Oeste 20 Norte 0 820.3 0.2 44
2019-07-28 12:00:00 14.1 7 Nordeste 19 Nordeste 0 820.2 0.7 58
2019-07-28 11:00:00 12.8 8 Nordeste 17 Norte 0 820.1 0.9 58
2019-07-28 10:00:00 13 5 Nordeste 11 Nordeste 0 820.1 1 63
2019-07-28 09:00:00 11 3 Sur 11 Sudoeste 0 819.5 0.5 62
2019-07-28 08:00:00 6.9 6 Sur 11 Sur 0 819.2 0.1 74
2019-07-28 07:00:00 6.5 4 Sudeste 13 Sudeste 0 819.1 -0.2 75
2019-07-28 06:00:00 6.1 4 Sudeste 15 Sur 0 819 -0.3 81
2019-07-28 05:00:00 6.6 5 Este 12 Sudoeste 0 819.1 -0.2 79
2019-07-28 04:00:00 6.5 5 Sur 10 Sudeste 0 819.3 -0.1 83
2019-07-28 03:00:00 6.2 3 Sudoeste 13 Sudeste 0 819.3 -0.2 83
2019-07-28 02:00:00 6.8 6 Sudeste 15 Norte 0.8 819.3 -0.1 85
2019-07-28 01:00:00 8 6 Nordeste 19 Nordeste 0.2 819.4 0.7 88
2019-07-28 00:00:00 8.6 4 Este 18 Este 0.2 819.5 1.3 91
2019-07-27 23:00:00 8.4 5 Norte 32 Norte 0.2 819.4 1.8 96
2019-07-26 12:00:00 14.2 4 Noroeste 10 Oeste 0 821.4 0.2 87
2019-07-26 11:00:00 13.9 7 Oeste 14 Noroeste 0 821.5 0.2 90
2019-07-26 10:00:00 14.9 4 Nordeste 15 Norte 0 821.5 0.2 82
2019-07-26 09:00:00 14.9 5 Nordeste 13 Nordeste 0 821.2 -0.4 82
2019-07-26 08:00:00 13.9 4 Noroeste 32 Noroeste 0 821.3 -1 76
2019-07-26 07:00:00 16.7 11 Sudoeste 27 Sudoeste 0 821.3 -1.4 49
2019-07-26 06:00:00 13.2 6 Sudeste 33 Oeste 0 821.6 -1.2 75
2019-07-26 05:00:00 14.3 11 Sudoeste 37 Sur 0 822.3 -0.8 70
2019-07-26 04:00:00 17 17 Sudoeste 41 Noroeste 0.2 822.7 -0.8 52
2019-07-26 03:00:00 16.3 9 Sur 19 Sur 0 822.8 -1.1 52
2019-07-26 02:00:00 16.5 10 Sudoeste 21 Sudeste 0 823.1 -0.8 49
2019-07-26 01:00:00 17.7 8 Sudeste 24 Noroeste 0 823.5 -0.2 40
2019-07-26 00:00:00 18.1 8 Sur 21 Sur 0 823.9 0.5 40
2019-07-25 23:00:00 19 5 Norte 19 Sudeste 0 823.9 0.7 35
2019-07-25 22:00:00 21.3 9 Noroeste 33 Sudoeste 0 823.7 0.7 27
2019-07-25 21:00:00 23 15 Sudoeste 32 Oeste 0 823.4 0.2 25
2019-07-25 20:00:00 24 20 Oeste 43 Oeste 0 823.2 -0.4 23
2019-07-25 19:00:00 25.7 16 Oeste 52 Oeste 0 823 -0.8 19
2019-07-25 18:00:00 26.4 19 Oeste 47 Oeste 0 823.2 -0.9 19
2019-07-25 17:00:00 26.7 16 Oeste 52 Oeste 0 823.6 -0.8 19
2019-07-25 16:00:00 27.2 14 Sudoeste 52 Oeste 0 823.8 -0.6 17
2019-07-25 15:00:00 25.6 21 Noroeste 59 Oeste 0 824.1 -0.5 19
2019-07-25 14:00:00 25.2 17 Sudoeste 60 Oeste 0 824.4 -0.3 22
2019-07-25 13:00:00 24.3 17 Noroeste 47 Oeste 0 824.4 0 28
2019-07-25 12:00:00 25.3 8 Oeste 30 Sur 0 824.6 0.4 30
2019-07-25 11:00:00 23.6 8 Oeste 37 Oeste 0 824.7 0.6 35
2019-07-25 10:00:00 23.4 12 Oeste 27 Oeste 0 824.4 0.4 35
2019-07-25 09:00:00 23.3 11 Sur 28 Sur 0 824.2 0.3 35
2019-07-25 08:00:00 20.5 18 Sur 35 Sur 0 824.1 0.1 41
2019-07-25 07:00:00 19.2 17 Sur 29 Sur 0 824 -0.4 41
2019-07-25 06:00:00 18.7 20 Sur 40 Sudeste 0 823.9 -0.6 40
2019-07-25 05:00:00 18.7 24 Sudeste 49 Sudeste 0 824 -0.8 38
2019-07-25 04:00:00 19.2 17 Sudoeste 46 Oeste 0 824.4 -0.7 35
2019-07-25 03:00:00 19.6 9 Norte 54 Sudeste 0 824.5 -0.6 33
2019-07-25 02:00:00 20.4 19 Este 71 Este 0 824.8 -0.5 30
2019-07-25 01:00:00 21.3 17 Este 46 Este 0 825.1 0.2 27
2019-07-25 00:00:00 20.4 4 Sudeste 15 Norte 0 825.1 0.3 32
2019-07-24 23:00:00 20.9 4 Sudeste 31 Oeste 0 825.3 0.8 31
2019-07-24 22:00:00 22.7 9 Noroeste 42 Sudoeste 0 824.9 0.3 27
2019-07-24 21:00:00 24.7 11 Oeste 35 Sur 0 824.8 -0.1 25
2019-07-24 20:00:00 26.5 7 Norte 43 Oeste 0 824.5 -0.6 24
2019-07-24 19:00:00 27.5 8 Noroeste 41 Sudoeste 0 824.6 -0.9 23
2019-07-24 18:00:00 27.7 17 Oeste 42 Oeste 0 824.9 -1 23
2019-07-24 17:00:00 28.1 14 Oeste 45 Sudoeste 0 825.1 -1.1 23
2019-07-24 16:00:00 28.2 11 Noroeste 44 Noroeste 0 825.5 -1 23
2019-07-24 15:00:00 26.3 9 Norte 50 Oeste 0 825.9 -0.6 26
2019-07-24 14:00:00 27.5 9 Oeste 41 Sur 0 826.2 -0.3 24
2019-07-24 13:00:00 25.7 12 Noroeste 31 Sudeste 0 826.5 0 29
2019-07-24 12:00:00 24.5 10 Sudoeste 31 Sur 0 826.5 0.1 30
2019-07-24 11:00:00 23 21 Sudeste 38 Sudeste 0 826.5 0.4 29
2019-07-24 10:00:00 22.3 19 Sur 39 Sudeste 0 826.5 0.5 30
2019-07-24 09:00:00 21.3 16 Sur 51 Sur 0 826.4 0.7 30
2019-07-24 08:00:00 19.1 25 Sur 60 Sudoeste 0 826.1 0.3 37
2019-07-24 07:00:00 19 20 Sudoeste 48 Oeste 0 826 -0.2 36
2019-07-24 06:00:00 19.4 12 Oeste 54 Sudoeste 0 825.7 -1.3 34
2019-07-24 05:00:00 19.4 16 Sudoeste 51 Sudoeste 0 825.8 -1.4 35
2019-07-24 04:00:00 19 19 Oeste 56 Oeste 0 826.2 -1.4 37
2019-07-24 03:00:00 18.6 18 Oeste 46 Sudoeste 0 827 0.2 38
2019-07-24 02:00:00 17.1 5 Sudoeste 20 Oeste 0.2 827.2 0.6 42
2019-07-24 01:00:00 17.6 6 Norte 61 Sudoeste 0 827.6 0.3 46
2019-07-24 00:00:00 18.5 23 Sudoeste 73 Sudoeste 0.2 826.8 0.7 44